createdAt,value
2023-04-02T00:01:08.013Z,6.67
2023-04-02T00:06:31.317Z,6.73
2023-04-02T00:11:38.307Z,6.14
2023-04-02T00:16:40.969Z,6.46
2023-04-02T00:21:46.880Z,6.54
2023-04-02T00:26:52.979Z,6.63
2023-04-02T00:32:14.738Z,6.41
2023-04-02T00:37:24.820Z,4.84
2023-04-02T00:42:33.283Z,5.46
2023-04-02T00:47:39.827Z,4.18
2023-04-02T00:52:46.209Z,5.63
2023-04-02T00:57:50.812Z,6.09
2023-04-02T01:03:31.275Z,6.06
2023-04-02T01:09:03.301Z,6.18
2023-04-02T01:14:17.971Z,6.45
2023-04-02T01:19:48.279Z,6.46
2023-04-02T01:24:51.464Z,5.81
2023-04-02T01:29:57.602Z,5.84
2023-04-02T01:35:02.218Z,6.25
2023-04-02T01:40:31.259Z,6.21
2023-04-02T01:45:43.808Z,6.12
2023-04-02T01:50:58.956Z,6.38
2023-04-02T01:56:03.040Z,5.64
2023-04-02T02:01:10.510Z,6.92
2023-04-02T02:06:18.593Z,6.88
2023-04-02T02:11:25.157Z,6.73
2023-04-02T02:16:31.096Z,6.91
2023-04-02T02:21:45.290Z,6.93
2023-04-02T02:26:52.913Z,6.41
2023-04-02T02:32:08.725Z,5.99
2023-04-02T02:37:24.911Z,6.63
2023-04-02T02:42:33.630Z,6.03
2023-04-02T02:47:39.197Z,8.12
2023-04-02T02:52:48.358Z,8.24
2023-04-02T02:58:01.128Z,6.86
2023-04-02T03:03:09.231Z,8.73
2023-04-02T03:08:22.990Z,8.32
2023-04-02T03:13:33.603Z,8.59
2023-04-02T03:18:46.068Z,8.68
2023-04-02T03:23:54.859Z,8.39
2023-04-02T03:29:07.329Z,8.11
2023-04-02T03:34:24.621Z,7.97
2023-04-02T03:39:50.505Z,7.96
2023-04-02T03:45:21.250Z,7.59
2023-04-02T03:50:24.992Z,7.67
2023-04-02T03:55:31.501Z,7.92
2023-04-02T04:00:52.713Z,7.95
2023-04-02T04:06:15.413Z,7.26
2023-04-02T04:11:23.988Z,7.67
2023-04-02T04:17:14.767Z,7.37
2023-04-02T04:22:20.638Z,7.56
2023-04-02T04:27:35.770Z,7.59
2023-04-02T04:33:06.107Z,7.56
2023-04-02T04:38:22.890Z,6.95
2023-04-02T04:43:45.262Z,6.09
2023-04-02T04:48:57.135Z,6.56
2023-04-02T04:54:02.102Z,6.56
2023-04-02T04:59:16.237Z,6.99
2023-04-02T05:04:37.050Z,7.88
2023-04-02T05:09:44.265Z,7.99
2023-04-02T05:15:15.276Z,8.46
2023-04-02T05:20:24.144Z,8.65
2023-04-02T05:25:33.031Z,8.84
2023-04-02T05:30:53.756Z,8.95
2023-04-02T05:35:59.194Z,7.66
2023-04-02T05:41:04.117Z,8.88
2023-04-02T05:46:25.158Z,7.97
2023-04-02T05:51:47.301Z,8.95
2023-04-02T05:56:56.748Z,8.41
2023-04-02T06:02:17.629Z,9.02
2023-04-02T06:07:26.670Z,7.68
2023-04-02T06:12:59.105Z,9.35
2023-04-02T06:18:20.101Z,9.70
2023-04-02T06:23:43.230Z,9.88
2023-04-02T06:29:09.497Z,10.10
2023-04-02T06:34:17.240Z,10.24
2023-04-02T06:39:23.874Z,9.90
2023-04-02T06:44:30.352Z,9.07
2023-04-02T06:49:47.921Z,9.27
2023-04-02T06:54:50.897Z,9.54
2023-04-02T07:00:00.824Z,10.80
2023-04-02T07:05:06.654Z,10.75
2023-04-02T07:10:10.288Z,10.64
2023-04-02T07:15:17.503Z,11.20
2023-04-02T07:20:36.377Z,11.60
2023-04-02T07:25:39.252Z,10.28
2023-04-02T07:30:42.220Z,11.74
2023-04-02T07:35:45.957Z,12.08
2023-04-02T07:40:48.858Z,10.80
2023-04-02T07:46:01.975Z,11.63
2023-04-02T07:51:05.238Z,12.33
2023-04-02T07:56:09.526Z,12.82
2023-04-02T08:01:27.611Z,12.92
2023-04-02T08:06:31.100Z,13.04
2023-04-02T08:11:33.908Z,12.78
2023-04-02T08:16:53.229Z,13.33
2023-04-02T08:22:05.832Z,12.40
2023-04-02T08:27:08.950Z,13.33
2023-04-02T08:32:16.518Z,13.45
2023-04-02T08:37:19.545Z,14.49
2023-04-02T08:42:53.035Z,14.61
2023-04-02T08:47:58.594Z,14.49
2023-04-02T08:53:04.704Z,14.17
2023-04-02T08:58:25.766Z,14.37
2023-04-02T09:03:43.706Z,14.75
2023-04-02T09:08:49.690Z,14.12
2023-04-02T09:13:58.451Z,14.73
2023-04-02T09:19:02.615Z,14.28
2023-04-02T09:24:06.034Z,13.91
2023-04-02T09:29:45.588Z,14.65
2023-04-02T09:34:49.003Z,13.21
2023-04-02T09:39:52.612Z,14.60
2023-04-02T09:45:23.029Z,14.95
2023-04-02T09:50:35.786Z,15.34
2023-04-02T09:55:38.630Z,16.44
2023-04-02T10:00:50.726Z,15.69
2023-04-02T10:06:14.927Z,17.68
2023-04-02T11:56:48.331Z,16.46
2023-04-02T12:01:58.454Z,17.65
2023-04-02T12:07:20.782Z,17.67
2023-04-02T12:12:36.754Z,18.25
2023-04-02T12:17:41.496Z,18.49
2023-04-02T12:22:58.494Z,18.85
2023-04-02T12:28:10.410Z,19.24
2023-04-02T12:33:34.812Z,19.27
2023-04-02T12:38:46.220Z,18.26
2023-04-02T12:43:57.251Z,19.53
2023-04-02T12:49:08.563Z,19.19
2023-04-02T12:54:18.324Z,17.74
2023-04-02T12:59:37.009Z,17.14
2023-04-02T13:04:48.575Z,17.79
2023-04-02T13:10:23.895Z,17.77
2023-04-02T13:15:38.009Z,16.78
2023-04-02T13:20:58.175Z,17.05
2023-04-02T13:26:04.117Z,15.11
2023-04-02T13:31:20.226Z,16.09
2023-04-02T13:36:24.579Z,15.23
2023-04-02T13:41:30.298Z,15.65
2023-04-02T13:46:35.358Z,13.60
2023-04-02T13:51:51.765Z,14.51
2023-04-02T13:56:57.060Z,14.53
2023-04-02T14:02:06.646Z,14.78
2023-04-02T14:07:35.616Z,14.97
2023-04-02T14:13:19.775Z,14.64
2023-04-02T14:18:42.112Z,14.28
2023-04-02T14:23:59.966Z,14.57
2023-04-02T14:29:28.222Z,13.98
2023-04-02T14:34:58.738Z,15.01
2023-04-02T14:40:35.429Z,15.89
2023-04-02T14:45:56.120Z,14.62
2023-04-02T14:51:31.929Z,15.12
2023-04-02T14:56:40.629Z,15.87
2023-04-02T15:02:04.647Z,13.53
2023-04-02T15:07:17.288Z,14.22
2023-04-02T15:12:33.648Z,14.73
2023-04-02T15:17:37.074Z,14.90
2023-04-02T15:22:56.930Z,13.19
2023-04-02T15:28:17.006Z,14.63
2023-04-02T15:33:41.482Z,14.70
2023-04-02T15:38:54.158Z,13.73
2023-04-02T15:44:11.888Z,15.10
2023-04-02T15:49:43.666Z,14.65
2023-04-02T15:54:56.846Z,14.55
2023-04-02T16:00:16.038Z,13.60
2023-04-02T16:05:39.635Z,13.26
2023-04-02T16:10:43.387Z,13.78
2023-04-02T16:15:56.279Z,11.62
2023-04-02T16:21:04.059Z,11.86
2023-04-02T16:26:47.647Z,11.38
2023-04-02T16:32:04.758Z,10.72
2023-04-02T16:37:49.040Z,11.73
2023-04-02T16:43:12.252Z,11.24
2023-04-02T16:48:49.350Z,10.96
2023-04-02T16:54:01.941Z,10.70
2023-04-02T16:59:39.668Z,11.73
2023-04-02T17:04:59.913Z,11.56
2023-04-02T17:10:30.808Z,10.99
2023-04-02T17:15:41.597Z,10.54
2023-04-02T17:20:44.774Z,10.34
2023-04-02T17:54:32.072Z,11.36
2023-04-02T17:59:59.419Z,10.13
2023-04-02T18:05:11.335Z,10.95
2023-04-02T18:10:46.791Z,11.01
2023-04-02T18:16:17.605Z,10.83
2023-04-02T18:21:26.515Z,10.85
2023-04-02T18:27:07.593Z,10.27
2023-04-02T18:32:37.135Z,10.07
2023-04-02T18:38:10.690Z,9.99
2023-04-02T18:43:29.926Z,9.51
2023-04-02T18:49:08.661Z,9.94
2023-04-02T18:54:24.631Z,9.58
2023-04-02T18:59:47.419Z,10.09
2023-04-02T19:05:01.702Z,10.66
2023-04-02T19:10:30.468Z,9.79
2023-04-02T19:15:54.852Z,9.24
2023-04-02T19:21:29.871Z,8.98
2023-04-02T19:27:04.501Z,7.58
2023-04-02T19:32:24.026Z,8.49
2023-04-02T19:37:40.450Z,9.42
2023-04-02T19:42:44.460Z,9.65
2023-04-02T19:47:47.181Z,9.77
2023-04-02T19:52:49.748Z,10.24
2023-04-02T19:58:00.991Z,11.12
2023-04-02T20:03:11.467Z,11.05
2023-04-02T20:08:14.299Z,11.54
2023-04-02T20:13:17.376Z,10.40
2023-04-02T20:18:21.133Z,10.36
2023-04-02T20:23:27.947Z,11.85
2023-04-02T20:28:32.040Z,11.87
2023-04-02T20:33:35.153Z,11.61
2023-04-02T20:38:38.553Z,10.15
2023-04-02T20:43:43.568Z,9.59
2023-04-02T20:48:47.748Z,10.85
2023-04-02T20:53:52.032Z,10.13
2023-04-02T20:58:54.634Z,11.12
2023-04-02T21:03:59.847Z,9.93
2023-04-02T21:09:17.149Z,10.48
2023-04-02T21:14:32.829Z,9.77
2023-04-02T21:19:36.824Z,10.70
2023-04-02T21:24:39.467Z,10.51
2023-04-02T21:29:42.270Z,10.62
2023-04-02T21:34:45.237Z,11.07
2023-04-02T21:39:48.084Z,11.08
2023-04-02T21:44:51.129Z,10.79
2023-04-02T21:49:54.228Z,9.70
2023-04-02T21:54:57.424Z,10.29
2023-04-02T22:00:01.635Z,9.57
2023-04-02T22:05:04.929Z,10.41
2023-04-02T22:10:09.028Z,9.17
2023-04-02T22:15:12.508Z,10.21
2023-04-02T22:20:15.408Z,9.53
2023-04-02T22:25:18.323Z,9.84
2023-04-02T22:30:21.113Z,10.10
2023-04-02T22:35:23.714Z,10.27
2023-04-02T22:40:26.805Z,10.48
2023-04-02T22:45:29.848Z,9.91
2023-04-02T22:50:42.469Z,9.04
2023-04-02T22:55:45.233Z,8.91
2023-04-02T23:00:48.844Z,9.85
2023-04-02T23:06:03.122Z,10.08
2023-04-02T23:11:11.035Z,10.12
2023-04-02T23:16:15.130Z,9.99
2023-04-02T23:21:19.304Z,8.35
2023-04-02T23:26:25.658Z,9.88
2023-04-02T23:31:28.587Z,8.81
2023-04-02T23:36:33.584Z,9.63
2023-04-02T23:41:38.916Z,9.29
2023-04-02T23:46:42.418Z,8.96
2023-04-02T23:51:45.354Z,9.14
2023-04-02T23:56:48.596Z,9.19
